sensor_id;sensor_type;location;lat;lon;timestamp;P1;durP1;ratioP1;P2;durP2;ratioP2
21266;SDS011;10791;53.108;18.326;2023-01-15T00:04:57;6.37;;;3.20;;
21266;SDS011;10791;53.108;18.326;2023-01-15T00:10:05;6.40;;;3.20;;
21266;SDS011;10791;53.108;18.326;2023-01-15T00:15:09;5.63;;;2.40;;
21266;SDS011;10791;53.108;18.326;2023-01-15T00:20:15;5.37;;;2.80;;
21266;SDS011;10791;53.108;18.326;2023-01-15T00:25:22;7.03;;;2.63;;
21266;SDS011;10791;53.108;18.326;2023-01-15T00:30:47;7.10;;;2.60;;
21266;SDS011;10791;53.108;18.326;2023-01-15T00:35:50;8.27;;;2.90;;
21266;SDS011;10791;53.108;18.326;2023-01-15T00:41:01;8.37;;;3.10;;
21266;SDS011;10791;53.108;18.326;2023-01-15T00:46:04;8.27;;;3.37;;
21266;SDS011;10791;53.108;18.326;2023-01-15T00:51:12;8.53;;;3.63;;
21266;SDS011;10791;53.108;18.326;2023-01-15T00:56:18;7.17;;;3.17;;
21266;SDS011;10791;53.108;18.326;2023-01-15T01:01:24;6.67;;;2.90;;
21266;SDS011;10791;53.108;18.326;2023-01-15T01:06:29;6.90;;;2.87;;
21266;SDS011;10791;53.108;18.326;2023-01-15T01:11:34;7.03;;;3.03;;
21266;SDS011;10791;53.108;18.326;2023-01-15T01:16:40;8.57;;;2.50;;
21266;SDS011;10791;53.108;18.326;2023-01-15T01:21:44;11.93;;;2.63;;
21266;SDS011;10791;53.108;18.326;2023-01-15T01:26:52;7.67;;;2.60;;
21266;SDS011;10791;53.108;18.326;2023-01-15T01:31:55;6.43;;;2.47;;
21266;SDS011;10791;53.108;18.326;2023-01-15T01:36:59;3.73;;;2.17;;
21266;SDS011;10791;53.108;18.326;2023-01-15T01:42:13;5.50;;;1.70;;
21266;SDS011;10791;53.108;18.326;2023-01-15T01:47:22;5.10;;;1.60;;
21266;SDS011;10791;53.108;18.326;2023-01-15T01:52:30;8.00;;;2.07;;
21266;SDS011;10791;53.108;18.326;2023-01-15T01:57:40;6.07;;;2.30;;
21266;SDS011;10791;53.108;18.326;2023-01-15T02:02:46;4.93;;;2.27;;
21266;SDS011;10791;53.108;18.326;2023-01-15T02:07:52;5.47;;;1.80;;
21266;SDS011;10791;53.108;18.326;2023-01-15T02:13:04;6.23;;;2.67;;
21266;SDS011;10791;53.108;18.326;2023-01-15T02:18:23;5.53;;;2.57;;
21266;SDS011;10791;53.108;18.326;2023-01-15T02:28:58;7.70;;;2.57;;
21266;SDS011;10791;53.108;18.326;2023-01-15T02:34:05;5.77;;;2.60;;
21266;SDS011;10791;53.108;18.326;2023-01-15T02:39:23;3.57;;;1.50;;
21266;SDS011;10791;53.108;18.326;2023-01-15T02:44:36;6.53;;;1.97;;
21266;SDS011;10791;53.108;18.326;2023-01-15T02:49:50;4.83;;;1.90;;
21266;SDS011;10791;53.108;18.326;2023-01-15T02:55:03;3.30;;;1.43;;
21266;SDS011;10791;53.108;18.326;2023-01-15T03:00:15;4.53;;;1.53;;
21266;SDS011;10791;53.108;18.326;2023-01-15T03:16:13;7.63;;;1.67;;
21266;SDS011;10791;53.108;18.326;2023-01-15T03:27:23;6.77;;;2.33;;
21266;SDS011;10791;53.108;18.326;2023-01-15T03:32:27;4.83;;;1.70;;
21266;SDS011;10791;53.108;18.326;2023-01-15T03:37:34;6.33;;;1.80;;
21266;SDS011;10791;53.108;18.326;2023-01-15T03:42:44;5.50;;;1.60;;
21266;SDS011;10791;53.108;18.326;2023-01-15T03:48:25;3.20;;;1.43;;
21266;SDS011;10791;53.108;18.326;2023-01-15T03:53:42;5.03;;;1.70;;
21266;SDS011;10791;53.108;18.326;2023-01-15T03:58:55;5.10;;;1.70;;
21266;SDS011;10791;53.108;18.326;2023-01-15T04:04:16;5.50;;;2.83;;
21266;SDS011;10791;53.108;18.326;2023-01-15T04:09:20;5.80;;;2.20;;
21266;SDS011;10791;53.108;18.326;2023-01-15T04:14:28;3.70;;;2.07;;
21266;SDS011;10791;53.108;18.326;2023-01-15T04:19:38;3.27;;;1.63;;
21266;SDS011;10791;53.108;18.326;2023-01-15T04:24:42;8.27;;;2.47;;
21266;SDS011;10791;53.108;18.326;2023-01-15T04:29:51;10.53;;;2.57;;
21266;SDS011;10791;53.108;18.326;2023-01-15T04:34:57;3.37;;;1.53;;
21266;SDS011;10791;53.108;18.326;2023-01-15T04:40:03;4.27;;;1.57;;
21266;SDS011;10791;53.108;18.326;2023-01-15T04:45:10;5.20;;;2.03;;
21266;SDS011;10791;53.108;18.326;2023-01-15T04:50:14;5.70;;;2.17;;
21266;SDS011;10791;53.108;18.326;2023-01-15T04:55:19;7.13;;;2.50;;
21266;SDS011;10791;53.108;18.326;2023-01-15T05:00:27;4.07;;;2.00;;
21266;SDS011;10791;53.108;18.326;2023-01-15T05:05:31;3.77;;;1.67;;
21266;SDS011;10791;53.108;18.326;2023-01-15T05:10:40;6.60;;;2.17;;
21266;SDS011;10791;53.108;18.326;2023-01-15T05:15:45;3.93;;;1.60;;
21266;SDS011;10791;53.108;18.326;2023-01-15T05:20:50;2.53;;;1.43;;
21266;SDS011;10791;53.108;18.326;2023-01-15T05:25:57;5.17;;;2.10;;
21266;SDS011;10791;53.108;18.326;2023-01-15T05:31:09;5.70;;;1.80;;
21266;SDS011;10791;53.108;18.326;2023-01-15T05:36:24;3.23;;;1.83;;
21266;SDS011;10791;53.108;18.326;2023-01-15T05:41:36;3.17;;;1.53;;
21266;SDS011;10791;53.108;18.326;2023-01-15T05:46:58;2.47;;;1.50;;
21266;SDS011;10791;53.108;18.326;2023-01-15T05:52:05;3.40;;;1.57;;
21266;SDS011;10791;53.108;18.326;2023-01-15T05:57:11;3.23;;;1.43;;
21266;SDS011;10791;53.108;18.326;2023-01-15T06:02:15;5.40;;;1.80;;
21266;SDS011;10791;53.108;18.326;2023-01-15T06:07:18;3.90;;;1.70;;
21266;SDS011;10791;53.108;18.326;2023-01-15T06:12:22;3.83;;;1.50;;
21266;SDS011;10791;53.108;18.326;2023-01-15T06:17:25;4.67;;;1.90;;
21266;SDS011;10791;53.108;18.326;2023-01-15T06:22:29;5.53;;;1.70;;
21266;SDS011;10791;53.108;18.326;2023-01-15T06:27:32;3.43;;;1.80;;
21266;SDS011;10791;53.108;18.326;2023-01-15T06:32:36;3.87;;;2.20;;
21266;SDS011;10791;53.108;18.326;2023-01-15T06:37:39;5.30;;;2.67;;
21266;SDS011;10791;53.108;18.326;2023-01-15T06:42:43;4.13;;;2.00;;
21266;SDS011;10791;53.108;18.326;2023-01-15T06:48:14;6.53;;;2.43;;
21266;SDS011;10791;53.108;18.326;2023-01-15T06:53:17;3.53;;;1.73;;
21266;SDS011;10791;53.108;18.326;2023-01-15T06:58:21;5.20;;;2.33;;
21266;SDS011;10791;53.108;18.326;2023-01-15T07:03:27;8.07;;;2.77;;
21266;SDS011;10791;53.108;18.326;2023-01-15T07:08:31;6.03;;;3.03;;
21266;SDS011;10791;53.108;18.326;2023-01-15T07:13:35;5.07;;;3.27;;
21266;SDS011;10791;53.108;18.326;2023-01-15T07:18:39;7.33;;;2.73;;
21266;SDS011;10791;53.108;18.326;2023-01-15T07:23:43;6.40;;;3.33;;
21266;SDS011;10791;53.108;18.326;2023-01-15T07:28:47;6.40;;;3.27;;
21266;SDS011;10791;53.108;18.326;2023-01-15T07:33:50;5.17;;;3.17;;
21266;SDS011;10791;53.108;18.326;2023-01-15T07:38:54;6.73;;;3.97;;
21266;SDS011;10791;53.108;18.326;2023-01-15T07:43:57;6.57;;;3.00;;
21266;SDS011;10791;53.108;18.326;2023-01-15T07:49:19;6.43;;;3.60;;
21266;SDS011;10791;53.108;18.326;2023-01-15T07:54:41;6.67;;;4.63;;
21266;SDS011;10791;53.108;18.326;2023-01-15T07:59:45;9.03;;;5.37;;
21266;SDS011;10791;53.108;18.326;2023-01-15T08:04:49;6.23;;;3.83;;
21266;SDS011;10791;53.108;18.326;2023-01-15T08:09:52;8.90;;;5.87;;
21266;SDS011;10791;53.108;18.326;2023-01-15T08:14:56;8.13;;;5.37;;
21266;SDS011;10791;53.108;18.326;2023-01-15T08:20:17;8.13;;;4.60;;
21266;SDS011;10791;53.108;18.326;2023-01-15T08:25:24;6.17;;;4.97;;
21266;SDS011;10791;53.108;18.326;2023-01-15T08:30:28;6.87;;;4.93;;
21266;SDS011;10791;53.108;18.326;2023-01-15T08:35:32;7.33;;;4.97;;
21266;SDS011;10791;53.108;18.326;2023-01-15T08:40:37;6.83;;;4.40;;
21266;SDS011;10791;53.108;18.326;2023-01-15T08:46:01;5.37;;;4.20;;
21266;SDS011;10791;53.108;18.326;2023-01-15T08:51:07;5.53;;;4.13;;
21266;SDS011;10791;53.108;18.326;2023-01-15T08:56:15;5.37;;;3.93;;
21266;SDS011;10791;53.108;18.326;2023-01-15T09:01:20;9.03;;;4.93;;
21266;SDS011;10791;53.108;18.326;2023-01-15T09:06:23;6.73;;;3.93;;
21266;SDS011;10791;53.108;18.326;2023-01-15T09:11:27;7.43;;;4.30;;
21266;SDS011;10791;53.108;18.326;2023-01-15T09:16:31;6.70;;;4.67;;
21266;SDS011;10791;53.108;18.326;2023-01-15T09:21:35;6.00;;;3.53;;
21266;SDS011;10791;53.108;18.326;2023-01-15T09:26:39;5.17;;;3.30;;
21266;SDS011;10791;53.108;18.326;2023-01-15T09:31:43;7.03;;;3.60;;
21266;SDS011;10791;53.108;18.326;2023-01-15T09:36:46;7.20;;;3.90;;
21266;SDS011;10791;53.108;18.326;2023-01-15T09:41:53;7.80;;;4.37;;
21266;SDS011;10791;53.108;18.326;2023-01-15T09:58:31;5.50;;;3.63;;
21266;SDS011;10791;53.108;18.326;2023-01-15T10:03:42;5.30;;;3.50;;
21266;SDS011;10791;53.108;18.326;2023-01-15T10:08:52;5.67;;;4.33;;
21266;SDS011;10791;53.108;18.326;2023-01-15T10:14:13;6.97;;;4.23;;
21266;SDS011;10791;53.108;18.326;2023-01-15T10:19:25;4.40;;;3.27;;
21266;SDS011;10791;53.108;18.326;2023-01-15T10:24:48;5.47;;;3.67;;
21266;SDS011;10791;53.108;18.326;2023-01-15T10:45:56;1.83;;;0.50;;
21266;SDS011;10791;53.108;18.326;2023-01-15T10:51:05;0.53;;;0.30;;
21266;SDS011;10791;53.108;18.326;2023-01-15T11:01:35;0.80;;;0.33;;
21266;SDS011;10791;53.108;18.326;2023-01-15T11:06:42;1.97;;;0.90;;
21266;SDS011;10791;53.108;18.326;2023-01-15T11:11:49;2.30;;;0.53;;
21266;SDS011;10791;53.108;18.326;2023-01-15T11:17:01;3.10;;;0.80;;
21266;SDS011;10791;53.108;18.326;2023-01-15T11:22:12;3.03;;;0.80;;
21266;SDS011;10791;53.108;18.326;2023-01-15T11:27:24;3.07;;;0.83;;
21266;SDS011;10791;53.108;18.326;2023-01-15T11:32:35;1.77;;;0.80;;
21266;SDS011;10791;53.108;18.326;2023-01-15T11:37:40;1.77;;;0.73;;
21266;SDS011;10791;53.108;18.326;2023-01-15T11:42:47;3.97;;;0.97;;
21266;SDS011;10791;53.108;18.326;2023-01-15T11:48:19;2.60;;;0.70;;
21266;SDS011;10791;53.108;18.326;2023-01-15T11:53:44;2.20;;;0.80;;
21266;SDS011;10791;53.108;18.326;2023-01-15T11:59:01;1.77;;;0.80;;
21266;SDS011;10791;53.108;18.326;2023-01-15T12:04:28;4.20;;;1.73;;
21266;SDS011;10791;53.108;18.326;2023-01-15T12:16:29;6.00;;;3.40;;
21266;SDS011;10791;53.108;18.326;2023-01-15T12:32:17;5.10;;;2.63;;
21266;SDS011;10791;53.108;18.326;2023-01-15T12:37:27;4.43;;;2.47;;
21266;SDS011;10791;53.108;18.326;2023-01-15T12:42:36;5.50;;;2.60;;
21266;SDS011;10791;53.108;18.326;2023-01-15T12:48:11;6.47;;;3.17;;
21266;SDS011;10791;53.108;18.326;2023-01-15T13:04:17;6.30;;;2.90;;
21266;SDS011;10791;53.108;18.326;2023-01-15T13:09:43;6.43;;;3.10;;
21266;SDS011;10791;53.108;18.326;2023-01-15T13:14:47;6.63;;;2.80;;
21266;SDS011;10791;53.108;18.326;2023-01-15T13:31:11;4.90;;;1.23;;
21266;SDS011;10791;53.108;18.326;2023-01-15T13:36:37;1.50;;;0.80;;
21266;SDS011;10791;53.108;18.326;2023-01-15T13:41:51;2.67;;;1.00;;
21266;SDS011;10791;53.108;18.326;2023-01-15T13:47:19;1.47;;;0.67;;
21266;SDS011;10791;53.108;18.326;2023-01-15T13:52:28;2.70;;;0.97;;
21266;SDS011;10791;53.108;18.326;2023-01-15T13:57:36;6.77;;;3.20;;
21266;SDS011;10791;53.108;18.326;2023-01-15T14:02:49;8.07;;;2.17;;
21266;SDS011;10791;53.108;18.326;2023-01-15T14:07:56;2.83;;;1.07;;
21266;SDS011;10791;53.108;18.326;2023-01-15T14:13:14;4.03;;;1.17;;
21266;SDS011;10791;53.108;18.326;2023-01-15T14:34:55;9.03;;;3.63;;
21266;SDS011;10791;53.108;18.326;2023-01-15T14:40:15;4.80;;;2.57;;
21266;SDS011;10791;53.108;18.326;2023-01-15T14:50:41;7.00;;;3.03;;
21266;SDS011;10791;53.108;18.326;2023-01-15T14:56:03;7.40;;;3.50;;
21266;SDS011;10791;53.108;18.326;2023-01-15T15:01:43;21.53;;;7.70;;
21266;SDS011;10791;53.108;18.326;2023-01-15T15:06:56;16.30;;;5.80;;
21266;SDS011;10791;53.108;18.326;2023-01-15T15:22:46;4.23;;;1.63;;
21266;SDS011;10791;53.108;18.326;2023-01-15T15:28:00;5.97;;;2.13;;
21266;SDS011;10791;53.108;18.326;2023-01-15T15:33:24;6.07;;;2.00;;
21266;SDS011;10791;53.108;18.326;2023-01-15T15:38:34;3.97;;;2.10;;
21266;SDS011;10791;53.108;18.326;2023-01-15T15:43:52;6.93;;;2.83;;
21266;SDS011;10791;53.108;18.326;2023-01-15T15:49:18;6.93;;;2.97;;
21266;SDS011;10791;53.108;18.326;2023-01-15T15:54:22;8.70;;;3.30;;
21266;SDS011;10791;53.108;18.326;2023-01-15T16:04:45;10.60;;;5.57;;
21266;SDS011;10791;53.108;18.326;2023-01-15T16:09:59;7.53;;;3.60;;
21266;SDS011;10791;53.108;18.326;2023-01-15T16:15:04;7.37;;;3.27;;
21266;SDS011;10791;53.108;18.326;2023-01-15T16:20:15;10.53;;;4.17;;
21266;SDS011;10791;53.108;18.326;2023-01-15T16:25:32;7.13;;;4.20;;
21266;SDS011;10791;53.108;18.326;2023-01-15T16:30:43;7.80;;;4.13;;
21266;SDS011;10791;53.108;18.326;2023-01-15T16:35:53;6.40;;;4.00;;
21266;SDS011;10791;53.108;18.326;2023-01-15T16:41:00;7.60;;;3.80;;
21266;SDS011;10791;53.108;18.326;2023-01-15T16:46:15;7.43;;;3.97;;
21266;SDS011;10791;53.108;18.326;2023-01-15T16:56:48;8.43;;;3.57;;
21266;SDS011;10791;53.108;18.326;2023-01-15T17:02:13;10.87;;;3.43;;
21266;SDS011;10791;53.108;18.326;2023-01-15T17:07:37;6.30;;;3.03;;
21266;SDS011;10791;53.108;18.326;2023-01-15T17:12:42;8.50;;;3.33;;
21266;SDS011;10791;53.108;18.326;2023-01-15T17:17:51;7.17;;;3.27;;
21266;SDS011;10791;53.108;18.326;2023-01-15T17:28:33;9.27;;;3.57;;
21266;SDS011;10791;53.108;18.326;2023-01-15T17:33:37;4.57;;;2.33;;
21266;SDS011;10791;53.108;18.326;2023-01-15T17:38:43;6.80;;;3.23;;
21266;SDS011;10791;53.108;18.326;2023-01-15T17:43:48;6.90;;;3.53;;
21266;SDS011;10791;53.108;18.326;2023-01-15T17:48:55;4.77;;;3.00;;
21266;SDS011;10791;53.108;18.326;2023-01-15T17:53:59;4.90;;;3.00;;
21266;SDS011;10791;53.108;18.326;2023-01-15T17:59:06;6.07;;;3.10;;
21266;SDS011;10791;53.108;18.326;2023-01-15T18:04:50;5.70;;;2.63;;
21266;SDS011;10791;53.108;18.326;2023-01-15T18:10:17;7.13;;;3.20;;
21266;SDS011;10791;53.108;18.326;2023-01-15T18:15:40;7.70;;;3.50;;
21266;SDS011;10791;53.108;18.326;2023-01-15T18:20:51;5.67;;;2.90;;
21266;SDS011;10791;53.108;18.326;2023-01-15T18:26:08;4.73;;;2.33;;
21266;SDS011;10791;53.108;18.326;2023-01-15T18:31:15;9.30;;;3.50;;
21266;SDS011;10791;53.108;18.326;2023-01-15T18:36:23;6.87;;;3.70;;
21266;SDS011;10791;53.108;18.326;2023-01-15T18:41:29;5.50;;;3.00;;
21266;SDS011;10791;53.108;18.326;2023-01-15T18:46:35;5.80;;;2.60;;
21266;SDS011;10791;53.108;18.326;2023-01-15T18:51:47;3.37;;;2.17;;
21266;SDS011;10791;53.108;18.326;2023-01-15T18:57:15;4.77;;;2.73;;
21266;SDS011;10791;53.108;18.326;2023-01-15T19:02:23;4.70;;;2.87;;
21266;SDS011;10791;53.108;18.326;2023-01-15T19:07:29;6.93;;;3.30;;
21266;SDS011;10791;53.108;18.326;2023-01-15T19:12:37;5.97;;;3.07;;
21266;SDS011;10791;53.108;18.326;2023-01-15T19:17:46;4.10;;;2.33;;
21266;SDS011;10791;53.108;18.326;2023-01-15T19:23:10;4.23;;;2.60;;
21266;SDS011;10791;53.108;18.326;2023-01-15T19:28:18;4.83;;;2.80;;
21266;SDS011;10791;53.108;18.326;2023-01-15T19:33:26;5.23;;;2.83;;
21266;SDS011;10791;53.108;18.326;2023-01-15T19:38:32;6.80;;;2.63;;
21266;SDS011;10791;53.108;18.326;2023-01-15T19:43:51;4.50;;;2.27;;
21266;SDS011;10791;53.108;18.326;2023-01-15T19:49:18;3.60;;;1.87;;
21266;SDS011;10791;53.108;18.326;2023-01-15T19:54:48;7.53;;;3.63;;
21266;SDS011;10791;53.108;18.326;2023-01-15T20:00:04;6.53;;;3.17;;
21266;SDS011;10791;53.108;18.326;2023-01-15T20:05:17;5.43;;;2.03;;
21266;SDS011;10791;53.108;18.326;2023-01-15T20:10:23;7.40;;;2.83;;
21266;SDS011;10791;53.108;18.326;2023-01-15T20:15:30;6.13;;;2.40;;
21266;SDS011;10791;53.108;18.326;2023-01-15T20:20:36;7.97;;;2.30;;
21266;SDS011;10791;53.108;18.326;2023-01-15T20:25:43;4.73;;;2.60;;
21266;SDS011;10791;53.108;18.326;2023-01-15T20:30:53;5.17;;;2.17;;
21266;SDS011;10791;53.108;18.326;2023-01-15T20:36:02;5.63;;;2.50;;
21266;SDS011;10791;53.108;18.326;2023-01-15T20:41:14;4.33;;;2.27;;
21266;SDS011;10791;53.108;18.326;2023-01-15T20:46:38;6.13;;;2.63;;
21266;SDS011;10791;53.108;18.326;2023-01-15T20:51:43;5.07;;;2.53;;
21266;SDS011;10791;53.108;18.326;2023-01-15T20:56:56;4.63;;;2.03;;
21266;SDS011;10791;53.108;18.326;2023-01-15T21:02:00;4.60;;;2.07;;
21266;SDS011;10791;53.108;18.326;2023-01-15T21:07:04;3.93;;;2.20;;
21266;SDS011;10791;53.108;18.326;2023-01-15T21:12:09;5.33;;;2.10;;
21266;SDS011;10791;53.108;18.326;2023-01-15T21:17:13;4.50;;;1.53;;
21266;SDS011;10791;53.108;18.326;2023-01-15T21:22:21;4.30;;;1.87;;
21266;SDS011;10791;53.108;18.326;2023-01-15T21:27:26;4.43;;;1.73;;
21266;SDS011;10791;53.108;18.326;2023-01-15T21:32:32;2.23;;;1.27;;
21266;SDS011;10791;53.108;18.326;2023-01-15T21:37:36;5.27;;;1.90;;
21266;SDS011;10791;53.108;18.326;2023-01-15T21:42:42;3.80;;;1.63;;
21266;SDS011;10791;53.108;18.326;2023-01-15T21:48:05;4.90;;;1.27;;
21266;SDS011;10791;53.108;18.326;2023-01-15T21:53:09;3.20;;;1.27;;
21266;SDS011;10791;53.108;18.326;2023-01-15T21:58:13;6.00;;;2.13;;
21266;SDS011;10791;53.108;18.326;2023-01-15T22:03:17;2.70;;;1.30;;
21266;SDS011;10791;53.108;18.326;2023-01-15T22:08:20;3.43;;;1.37;;
21266;SDS011;10791;53.108;18.326;2023-01-15T22:13:24;5.23;;;1.57;;
21266;SDS011;10791;53.108;18.326;2023-01-15T22:18:27;2.47;;;1.00;;
21266;SDS011;10791;53.108;18.326;2023-01-15T22:23:31;2.33;;;1.10;;
21266;SDS011;10791;53.108;18.326;2023-01-15T22:28:35;3.40;;;1.20;;
21266;SDS011;10791;53.108;18.326;2023-01-15T22:33:39;2.77;;;1.73;;
21266;SDS011;10791;53.108;18.326;2023-01-15T22:38:43;3.90;;;1.17;;
21266;SDS011;10791;53.108;18.326;2023-01-15T22:43:47;4.20;;;1.33;;
21266;SDS011;10791;53.108;18.326;2023-01-15T22:48:51;3.33;;;1.47;;
21266;SDS011;10791;53.108;18.326;2023-01-15T22:53:55;2.43;;;1.20;;
21266;SDS011;10791;53.108;18.326;2023-01-15T22:58:59;3.60;;;1.30;;
21266;SDS011;10791;53.108;18.326;2023-01-15T23:04:06;4.40;;;0.93;;
21266;SDS011;10791;53.108;18.326;2023-01-15T23:09:21;2.77;;;1.10;;
21266;SDS011;10791;53.108;18.326;2023-01-15T23:14:25;5.00;;;1.10;;
21266;SDS011;10791;53.108;18.326;2023-01-15T23:19:29;2.80;;;1.27;;
21266;SDS011;10791;53.108;18.326;2023-01-15T23:24:33;3.73;;;1.27;;
21266;SDS011;10791;53.108;18.326;2023-01-15T23:29:36;4.13;;;1.33;;
21266;SDS011;10791;53.108;18.326;2023-01-15T23:34:40;3.57;;;1.27;;
21266;SDS011;10791;53.108;18.326;2023-01-15T23:39:43;1.97;;;0.80;;
21266;SDS011;10791;53.108;18.326;2023-01-15T23:44:47;1.83;;;0.70;;
21266;SDS011;10791;53.108;18.326;2023-01-15T23:50:09;3.17;;;1.10;;
21266;SDS011;10791;53.108;18.326;2023-01-15T23:55:13;4.50;;;1.30;;
